Time;durP1;ratioP1;P1;durP2;ratioP2;P2;SDS_P1;SDS_P2;PMS_P1;PMS_P2;Temp;Humidity;BMP_temperature;BMP_pressure;BME280_temperature;BME280_humidity;BME280_pressure;Samples;Min_cycle;Max_cycle;Signal;HPM_P1;HPM_P2
2022/07/29 00:02:16;;;;;;;6.00;5.50;;;;;;;18.12;100.00;99233.00;5052908;28;20986;-79
2022/07/29 00:04:43;;;;;;;5.93;5.53;;;;;;;18.11;100.00;99234.06;5049703;28;20296;-78
2022/07/29 00:07:10;;;;;;;5.90;5.43;;;;;;;18.03;100.00;99233.59;5056434;28;20243;-79
2022/07/29 00:09:38;;;;;;;6.07;5.57;;;;;;;18.05;100.00;99236.03;5059665;28;20256;-79
2022/07/29 00:12:19;;;;;;;5.87;5.40;;;;;;;18.00;100.00;99228.72;5055562;28;20234;-79
2022/07/29 00:14:55;;;;;;;6.17;5.67;;;;;;;17.97;100.00;99231.16;5045943;28;20231;-79
2022/07/29 00:17:23;;;;;;;6.30;5.90;;;;;;;17.93;100.00;99219.25;5052968;28;20237;-79
2022/07/29 00:19:50;;;;;;;6.20;5.67;;;;;;;17.89;100.00;99226.31;5058281;28;20758;-79
2022/07/29 00:22:17;;;;;;;6.57;5.87;;;;;;;17.91;100.00;99224.16;5045999;28;20708;-79
2022/07/29 00:24:43;;;;;;;6.57;6.03;;;;;;;17.87;100.00;99225.81;5043368;28;20228;-80
2022/07/29 00:27:10;;;;;;;6.17;5.77;;;;;;;17.85;100.00;99227.97;5043285;28;20826;-79
2022/07/29 00:29:37;;;;;;;6.13;5.63;;;;;;;17.79;100.00;99227.16;5044278;28;20235;-79
2022/07/29 00:32:03;;;;;;;6.80;6.30;;;;;;;17.76;100.00;99222.31;5043936;28;20755;-79
2022/07/29 00:37:16;;;;;;;7.10;6.40;;;;;;;17.74;100.00;99229.88;5047008;28;20231;-78
2022/07/29 00:39:42;;;;;;;6.93;6.33;;;;;;;17.74;100.00;99229.06;5045225;28;20228;-78
2022/07/29 00:42:09;;;;;;;7.80;6.10;;;;;;;17.64;100.00;99229.91;5044860;28;20256;-78
2022/07/29 00:44:37;;;;;;;6.70;6.10;;;;;;;17.55;100.00;99218.81;5049303;28;20231;-79
2022/07/29 00:47:04;;;;;;;6.97;6.27;;;;;;;17.52;100.00;99224.78;5045078;28;20236;-79
2022/07/29 00:49:32;;;;;;;6.40;5.80;;;;;;;17.49;100.00;99221.81;5047245;28;20243;-79
2022/07/29 00:52:02;;;;;;;6.53;6.03;;;;;;;17.49;100.00;99232.66;5045384;28;20233;-78
2022/07/29 00:54:29;;;;;;;6.73;6.13;;;;;;;17.45;100.00;99216.13;5047998;28;20240;-79
2022/07/29 00:56:58;;;;;;;6.97;6.37;;;;;;;17.44;100.00;99211.81;5046865;28;20229;-79
2022/07/29 00:59:26;;;;;;;6.70;6.10;;;;;;;17.43;100.00;99214.78;5037237;28;20719;-78
2022/07/29 01:02:02;;;;;;;7.60;6.30;;;;;;;17.37;100.00;99210.44;5048233;28;20235;-77
2022/07/29 01:04:29;;;;;;;7.20;6.60;;;;;;;17.35;100.00;99209.94;5050939;28;20227;-79
2022/07/29 01:06:56;;;;;;;7.57;6.97;;;;;;;17.33;100.00;99207.47;5050730;28;20232;-79
2022/07/29 01:09:23;;;;;;;7.27;6.60;;;;;;;17.31;100.00;99206.94;5045158;28;20236;-79
2022/07/29 01:12:10;;;;;;;7.67;6.97;;;;;;;17.28;100.00;99207.50;5045397;28;20224;-79
2022/07/29 01:14:37;;;;;;;7.33;6.73;;;;;;;17.29;100.00;99211.81;5044862;28;20245;-78
2022/07/29 01:17:26;;;;;;;7.53;6.93;;;;;;;17.21;100.00;99215.09;5044329;28;20330;-79
2022/07/29 01:19:59;;;;;;;7.40;6.70;;;;;;;17.20;100.00;99201.81;5042837;28;20820;-79
2022/07/29 01:22:44;;;;;;;7.27;6.70;;;;;;;17.14;100.00;99209.13;5044534;28;20262;-79
2022/07/29 01:25:38;;;;;;;8.10;7.30;;;;;;;17.09;100.00;99203.72;5043777;28;20228;-79
2022/07/29 01:28:17;;;;;;;7.83;7.13;;;;;;;17.05;100.00;99208.88;5047626;28;20319;-79
2022/07/29 01:30:45;;;;;;;8.00;7.30;;;;;;;17.06;100.00;99206.97;5050262;28;20253;-79
2022/07/29 01:33:48;;;;;;;7.97;7.20;;;;;;;16.98;100.00;99204.81;5047431;28;20322;-79
2022/07/29 01:36:07;;;;;;;8.93;7.10;;;;;;;16.94;100.00;99212.66;5050156;28;20284;-79
2022/07/29 01:38:35;;;;;;;7.80;7.10;;;;;;;16.88;100.00;99210.22;5043628;28;20705;-79
2022/07/29 01:41:09;;;;;;;8.20;7.50;;;;;;;16.86;100.00;99207.78;5047155;28;20257;-79
2022/07/29 01:43:42;;;;;;;7.97;7.33;;;;;;;16.86;100.00;99224.03;5048305;28;20251;-78
2022/07/29 01:46:14;;;;;;;8.23;7.50;;;;;;;16.82;100.00;99214.81;5049037;28;20291;-79
2022/07/29 01:48:47;;;;;;;7.77;7.17;;;;;;;16.82;100.00;99224.84;5048789;28;20229;-79
2022/07/29 01:51:18;;;;;;;7.63;7.03;;;;;;;16.78;100.00;99210.22;5051178;28;20604;-79
2022/07/29 01:53:54;;;;;;;8.03;7.40;;;;;;;16.80;100.00;99216.19;5049013;28;20236;-79
2022/07/29 01:56:23;;;;;;;8.20;7.50;;;;;;;16.71;100.00;99216.72;5052108;28;20243;-79
2022/07/29 01:58:52;;;;;;;8.30;7.60;;;;;;;16.69;100.00;99215.38;5049240;28;20231;-80
2022/07/29 02:01:19;;;;;;;8.57;7.83;;;;;;;16.68;100.00;99222.66;5050225;28;20245;-80
2022/07/29 02:03:46;;;;;;;8.77;7.87;;;;;;;16.68;100.00;99224.56;5050893;28;20232;-79
2022/07/29 02:06:17;;;;;;;7.93;7.33;;;;;;;16.63;100.00;99211.84;5050461;28;20294;-79
2022/07/29 02:08:44;;;;;;;9.93;7.70;;;;;;;16.60;100.00;99217.78;5053158;28;20235;-79
2022/07/29 02:11:11;;;;;;;8.73;7.87;;;;;;;16.60;100.00;99214.28;5046558;28;20226;-79
2022/07/29 02:13:38;;;;;;;8.43;7.73;;;;;;;16.54;100.00;99223.41;5050870;28;20234;-78
2022/07/29 02:16:07;;;;;;;9.83;8.83;;;;;;;16.49;100.00;99223.41;5047463;28;20658;-79
2022/07/29 02:18:36;;;;;;;8.73;7.90;;;;;;;16.50;100.00;99219.63;5047531;28;20324;-78
2022/07/29 02:21:03;;;;;;;8.13;7.37;;;;;;;16.49;100.00;99228.81;5034201;28;20323;-79
2022/07/29 02:23:32;;;;;;;8.37;7.63;;;;;;;16.45;100.00;99231.25;5049098;28;20237;-79
2022/07/29 02:26:17;;;;;;;9.17;8.13;;;;;;;16.42;100.00;99225.56;5053097;28;20313;-80
2022/07/29 02:28:45;;;;;;;8.77;7.87;;;;;;;16.38;100.00;99230.69;5053330;28;20236;-79
2022/07/29 02:31:12;;;;;;;8.70;7.80;;;;;;;16.34;100.00;99224.19;5052183;28;20221;-79
2022/07/29 02:33:40;;;;;;;8.07;7.43;;;;;;;16.33;100.00;99225.25;5050508;28;20754;-80
2022/07/29 02:36:07;;;;;;;8.90;8.20;;;;;;;16.33;100.00;99216.38;5055162;28;20233;-79
2022/07/29 02:38:50;;;;;;;8.67;7.83;;;;;;;16.34;100.00;99220.66;5051160;28;20731;-79
2022/07/29 02:41:23;;;;;;;9.10;8.30;;;;;;;16.33;100.00;99217.16;5052984;28;20228;-79
2022/07/29 02:43:54;;;;;;;8.00;7.30;;;;;;;16.30;100.00;99221.22;5047919;28;20310;-78
2022/07/29 02:46:30;;;;;;;9.10;8.27;;;;;;;16.28;100.00;99215.25;5049331;28;20253;-79
2022/07/29 02:49:20;;;;;;;8.43;7.83;;;;;;;16.27;100.00;99224.47;5049137;28;20225;-79
2022/07/29 02:52:02;;;;;;;9.10;8.30;;;;;;;16.23;100.00;99220.66;5047507;28;20276;-78
2022/07/29 02:54:33;;;;;;;9.17;7.80;;;;;;;16.20;100.00;99223.88;5054673;28;20684;-79
2022/07/29 02:57:03;;;;;;;9.50;8.60;;;;;;;16.21;100.00;99225.50;5050743;28;20248;-78
2022/07/29 02:59:32;;;;;;;9.73;8.53;;;;;;;16.20;100.00;99220.34;5049926;28;20236;-77
2022/07/29 03:02:00;;;;;;;8.63;7.80;;;;;;;16.17;100.00;99223.59;5050441;28;20225;-78
2022/07/29 03:04:28;;;;;;;8.67;7.97;;;;;;;16.15;100.00;99223.88;5048777;28;20229;-78
2022/07/29 03:06:58;;;;;;;8.70;7.90;;;;;;;16.17;100.00;99226.31;5055123;28;20225;-78
2022/07/29 03:09:25;;;;;;;9.70;8.70;;;;;;;16.17;100.00;99219.00;5053959;28;20333;-78
2022/07/29 03:11:54;;;;;;;9.50;8.50;;;;;;;16.16;100.00;99219.28;5055406;28;21318;-77
2022/07/29 03:14:22;;;;;;;9.27;8.37;;;;;;;16.17;100.00;99220.91;5056188;28;20320;-79
2022/07/29 03:16:50;;;;;;;9.30;8.50;;;;;;;16.16;100.00;99219.28;5057798;28;20575;-78
2022/07/29 03:19:17;;;;;;;9.47;8.63;;;;;;;16.15;100.00;99223.03;5062204;28;20233;-79
2022/07/29 03:21:44;;;;;;;9.77;8.87;;;;;;;16.15;100.00;99228.44;5058361;28;20229;-79
2022/07/29 03:24:24;;;;;;;9.40;8.67;;;;;;;16.11;100.00;99222.78;5060003;28;20260;-78
2022/07/29 03:26:51;;;;;;;9.10;8.30;;;;;;;16.11;100.00;99228.19;5059629;28;20241;-78
2022/07/29 03:29:17;;;;;;;9.60;8.57;;;;;;;16.13;100.00;99222.50;5048352;28;20236;-78
2022/07/29 03:31:45;;;;;;;9.40;8.50;;;;;;;16.13;100.00;99223.34;5056488;28;20251;-78
2022/07/29 03:34:13;;;;;;;9.17;8.40;;;;;;;16.15;100.00;99223.03;5059648;28;20305;-81
2022/07/29 03:36:41;;;;;;;9.17;8.47;;;;;;;16.18;100.00;99220.66;5056794;28;20233;-78
2022/07/29 03:39:09;;;;;;;9.33;8.50;;;;;;;16.24;100.00;99224.97;5056604;28;20229;-78
2022/07/29 03:41:36;;;;;;;8.93;8.23;;;;;;;16.27;100.00;99212.81;5063558;28;20224;-78
2022/07/29 03:44:05;;;;;;;9.40;8.60;;;;;;;16.33;100.00;99225.25;5066663;28;20234;-80
2022/07/29 03:46:33;;;;;;;9.73;8.90;;;;;;;16.33;100.00;99214.44;5054059;28;20707;-78
2022/07/29 03:49:01;;;;;;;9.30;8.40;;;;;;;16.38;100.00;99224.50;5051478;28;20288;-78
2022/07/29 03:51:27;;;;;;;9.10;8.23;;;;;;;16.44;100.00;99240.44;5061591;28;20268;-79
2022/07/29 03:54:01;;;;;;;9.33;8.43;;;;;;;16.45;100.00;99225.03;5063333;28;20225;-78
2022/07/29 03:56:38;;;;;;;9.10;8.40;;;;;;;16.49;100.00;99240.44;5051052;28;20314;-78
2022/07/29 03:59:05;;;;;;;9.47;8.67;;;;;;;16.50;100.00;99235.84;5048676;28;20237;-79
2022/07/29 04:01:33;;;;;;;9.70;8.90;;;;;;;16.55;100.00;99233.97;5066715;28;20232;-78
2022/07/29 04:04:01;;;;;;;9.67;8.87;;;;;;;16.69;100.00;99248.63;5055459;28;20226;-79
2022/07/29 04:06:27;;;;;;;9.07;8.33;;;;;;;17.41;100.00;99292.75;5039377;28;20222;-78
2022/07/29 04:08:54;;;;;;;9.87;8.93;;;;;;;18.45;100.00;99306.34;5063674;28;20217;-79
2022/07/29 04:11:21;;;;;;;8.87;8.13;;;;;;;19.41;100.00;99339.41;5058580;28;20230;-79
2022/07/29 04:13:47;;;;;;;8.80;8.10;;;;;;;20.17;100.00;99345.75;5056384;28;20681;-78
2022/07/29 04:16:14;;;;;;;8.63;7.93;;;;;;;20.80;100.00;99280.22;5063374;28;20699;-78
2022/07/29 04:18:41;;;;;;;8.80;8.03;;;;;;;20.91;100.00;99257.16;5049665;28;20310;-78
2022/07/29 04:21:07;;;;;;;9.00;8.20;;;;;;;20.40;100.00;99254.38;5062781;28;20230;-79
2022/07/29 04:23:34;;;;;;;8.37;7.57;;;;;;;19.99;100.00;99255.97;5041736;28;20607;-78
2022/07/29 04:26:13;;;;;;;8.77;7.93;;;;;;;19.58;100.00;99250.16;5040559;28;20695;-79
2022/07/29 04:28:42;;;;;;;8.73;7.93;;;;;;;19.46;100.00;99249.72;5052468;28;20221;-79
2022/07/29 04:31:09;;;;;;;8.40;7.70;;;;;;;19.33;100.00;99248.47;5050086;28;20234;-78
2022/07/29 04:33:36;;;;;;;8.13;7.50;;;;;;;19.28;100.00;99243.91;5052857;28;20644;-78
2022/07/29 04:36:03;;;;;;;8.37;7.63;;;;;;;19.39;100.00;99243.81;5047669;28;20241;-78
2022/07/29 04:38:49;;;;;;;8.80;7.90;;;;;;;19.55;100.00;99237.94;5052419;28;20225;-78
2022/07/29 04:41:16;;;;;;;7.93;7.40;;;;;;;19.65;100.00;99243.28;5051639;28;20226;-78
2022/07/29 04:43:46;;;;;;;8.67;7.97;;;;;;;19.74;100.00;99240.75;5046088;28;20258;-78
2022/07/29 04:46:12;;;;;;;8.60;7.83;;;;;;;19.87;100.00;99245.50;5050672;28;20232;-78
2022/07/29 04:48:39;;;;;;;8.80;7.93;;;;;;;19.99;100.00;99251.34;5054826;28;20360;-79
2022/07/29 04:51:06;;;;;;;8.63;7.93;;;;;;;20.10;100.00;99249.31;5053751;28;20247;-79
2022/07/29 04:53:33;;;;;;;8.20;7.40;;;;;;;20.36;100.00;99256.06;5058402;28;20229;-78
2022/07/29 04:56:00;;;;;;;8.43;7.63;;;;;;;20.57;100.00;99246.53;5042040;28;20338;-78
2022/07/29 04:58:26;;;;;;;8.20;7.50;;;;;;;20.79;100.00;99247.84;5053730;28;20236;-79
2022/07/29 05:00:53;;;;;;;7.73;6.97;;;;;;;21.00;100.00;99249.13;5055574;28;20246;-78
2022/07/29 05:03:20;;;;;;;8.00;7.40;;;;;;;21.15;100.00;99253.56;5053091;28;20261;-81
2022/07/29 05:05:46;;;;;;;7.73;7.03;;;;;;;21.32;100.00;99251.09;5052864;28;20237;-80
2022/07/29 05:08:13;;;;;;;7.43;6.93;;;;;;;21.50;100.00;99242.88;5050349;28;20232;-79
2022/07/29 05:10:40;;;;;;;8.05;7.22;;;;;;;21.75;100.00;99247.00;5054587;28;21808;-79
2022/07/29 05:13:07;;;;;;;7.90;7.20;;;;;;;21.82;100.00;99243.91;5058624;28;20648;-79
2022/07/29 05:15:34;;;;;;;8.00;7.40;;;;;;;22.03;100.00;99256.03;5056753;28;20242;-80
2022/07/29 05:18:01;;;;;;;7.43;6.93;;;;;;;22.24;100.00;99246.34;5036031;28;20244;-78
2022/07/29 05:20:29;;;;;;;8.88;7.60;;;;;;;22.44;100.00;99250.56;5072839;28;20321;-79
2022/07/29 05:23:00;;;;;;;8.53;7.73;;;;;;;22.71;100.00;99252.44;5041445;28;20313;-80
2022/07/29 05:25:27;;;;;;;7.88;7.28;;;;;;;22.98;100.00;99252.34;5046557;28;20236;-80
2022/07/29 05:28:11;;;;;;;8.63;7.70;;;;;;;23.08;100.00;99259.47;5043753;28;20294;-79
2022/07/29 05:30:38;;;;;;;8.10;7.25;;;;;;;23.16;100.00;99251.34;5040901;28;20332;-79
2022/07/29 05:33:04;;;;;;;8.55;7.60;;;;;;;23.23;100.00;99256.38;5038735;28;20226;-78
2022/07/29 05:35:31;;;;;;;9.02;8.23;;;;;;;23.28;100.00;99259.78;5042635;28;20234;-81
2022/07/29 05:37:58;;;;;;;8.35;7.63;;;;;;;23.50;100.00;99258.97;5040932;28;20234;-79
2022/07/29 05:40:25;;;;;;;7.63;7.00;;;;;;;23.73;100.00;99256.19;5041043;28;20310;-78
2022/07/29 05:42:51;;;;;;;7.95;7.15;;;;;;;23.93;100.00;99267.41;5039600;28;20226;-80
2022/07/29 05:45:18;;;;;;;8.18;7.38;;;;;;;24.21;100.00;99258.97;5041667;28;20233;-79
2022/07/29 05:47:45;;;;;;;7.88;7.18;;;;;;;24.46;100.00;99275.47;5046292;28;20229;-79
2022/07/29 05:50:12;;;;;;;8.50;7.70;;;;;;;24.73;100.00;99273.56;5043455;28;20218;-79
2022/07/29 05:52:39;;;;;;;7.95;7.35;;;;;;;24.87;100.00;99275.03;5041437;28;20701;-79
2022/07/29 05:55:06;;;;;;;8.73;7.88;;;;;;;25.21;100.00;99274.22;5050917;28;20235;-79
2022/07/29 05:57:33;;;;;;;8.05;7.25;;;;;;;25.63;96.43;99269.00;5046836;28;20334;-79
2022/07/29 05:59:59;;;;;;;9.77;7.72;;;;;;;26.13;88.67;99266.41;5040536;28;20609;-79
2022/07/29 06:02:26;;;;;;;7.93;7.32;;;;;;;26.41;82.60;99269.50;5044490;28;20233;-80
2022/07/29 06:04:53;;;;;;;8.77;7.97;;;;;;;26.58;80.75;99266.63;5040512;28;20324;-79
2022/07/29 06:07:20;;;;;;;9.20;7.70;;;;;;;26.77;76.74;99269.72;5046625;28;20316;-78
2022/07/29 06:09:47;;;;;;;8.30;7.65;;;;;;;26.80;76.21;99265.50;5041394;28;20264;-80
2022/07/29 06:12:14;;;;;;;7.68;7.07;;;;;;;27.00;75.53;99259.22;5038534;28;20230;-78
2022/07/29 06:14:41;;;;;;;7.40;6.78;;;;;;;27.31;70.62;99267.00;5045010;28;20761;-78
2022/07/29 06:17:07;;;;;;;7.32;6.70;;;;;;;27.13;69.30;99255.38;5045869;28;20673;-79
2022/07/29 06:19:35;;;;;;;7.07;6.47;;;;;;;27.29;67.19;99266.56;5030418;28;20238;-79
2022/07/29 06:22:01;;;;;;;6.97;6.30;;;;;;;27.24;66.16;99267.56;5046176;28;20759;-79
2022/07/29 06:24:28;;;;;;;6.72;6.07;;;;;;;27.25;65.87;99271.91;5046565;28;20881;-79
2022/07/29 06:26:55;;;;;;;6.40;5.70;;;;;;;27.30;65.48;99265.41;5045983;28;20256;-78
2022/07/29 06:29:22;;;;;;;6.38;5.80;;;;;;;27.43;63.08;99273.38;5048512;28;20802;-80
2022/07/29 06:31:48;;;;;;;6.38;5.80;;;;;;;27.53;62.34;99267.44;5048550;28;20229;-79
2022/07/29 06:34:15;;;;;;;6.13;5.63;;;;;;;27.65;62.68;99274.13;5045632;28;20233;-79
2022/07/29 06:36:43;;;;;;;6.22;5.60;;;;;;;27.79;60.71;99277.38;5046392;28;20707;-80
2022/07/29 06:39:11;;;;;;;6.32;5.35;;;;;;;27.82;60.02;99271.97;5044598;28;20371;-79
2022/07/29 06:41:38;;;;;;;6.15;5.60;;;;;;;27.87;59.77;99260.75;5045816;28;20225;-79
2022/07/29 06:44:08;;;;;;;5.90;5.35;;;;;;;27.86;59.06;99280.34;5042364;28;20226;-79
2022/07/29 06:46:38;;;;;;;5.97;5.47;;;;;;;27.87;59.36;99273.72;5046161;28;20225;-79
2022/07/29 06:49:06;;;;;;;6.50;6.00;;;;;;;27.84;60.95;99277.16;5048120;28;20233;-78
2022/07/29 06:51:33;;;;;;;6.75;6.07;;;;;;;27.73;61.64;99273.22;5045265;28;20269;-78
2022/07/29 06:54:00;;;;;;;6.47;5.97;;;;;;;27.58;61.65;99280.19;5047557;28;20228;-79
2022/07/29 06:56:31;;;;;;;6.38;5.65;;;;;;;27.57;60.14;99281.34;5047457;28;20241;-79
2022/07/29 06:59:10;;;;;;;6.35;5.85;;;;;;;27.66;60.12;99276.56;5046841;28;20757;-79
2022/07/29 07:01:39;;;;;;;6.57;5.97;;;;;;;27.37;60.94;99274.72;5045021;28;20240;-78
2022/07/29 07:04:08;;;;;;;6.50;5.97;;;;;;;27.57;60.64;99281.34;5047580;28;20716;-79
2022/07/29 07:06:35;;;;;;;7.30;6.70;;;;;;;27.82;57.38;99280.25;5047915;28;20240;-78
2022/07/29 07:09:03;;;;;;;6.75;6.13;;;;;;;27.79;57.98;99269.91;5047805;28;20235;-78
2022/07/29 07:11:31;;;;;;;6.07;5.63;;;;;;;28.01;57.51;99277.75;5046317;28;20244;-78
2022/07/29 07:13:58;;;;;;;7.60;6.05;;;;;;;27.97;58.06;99273.25;5047783;28;20255;-79
2022/07/29 07:16:30;;;;;;;7.07;6.55;;;;;;;27.99;58.22;99271.78;5044456;28;20255;-79
2022/07/29 07:18:57;;;;;;;6.35;5.88;;;;;;;27.86;59.43;99272.09;5046841;28;20229;-79
2022/07/29 07:21:25;;;;;;;6.85;6.18;;;;;;;28.08;57.35;99270.88;5046841;28;20921;-80
2022/07/29 07:23:58;;;;;;;6.60;6.10;;;;;;;28.14;57.19;99275.81;5046927;28;20259;-79
2022/07/29 07:26:26;;;;;;;6.28;5.88;;;;;;;27.55;60.46;99275.38;5045037;28;20236;-79
2022/07/29 07:28:53;;;;;;;6.95;6.25;;;;;;;27.53;58.68;99277.66;5049464;28;20239;-79
2022/07/29 07:31:21;;;;;;;6.55;6.00;;;;;;;27.53;59.68;99283.16;5047844;28;20229;-80
2022/07/29 07:33:48;;;;;;;6.70;6.15;;;;;;;27.46;61.31;99282.88;5045679;28;20257;-79
2022/07/29 07:36:16;;;;;;;6.60;6.03;;;;;;;27.21;59.47;99281.97;5047132;28;20232;-79
2022/07/29 07:38:42;;;;;;;6.30;5.80;;;;;;;27.53;59.13;99272.94;5048088;28;20241;-78
2022/07/29 07:41:10;;;;;;;7.97;5.95;;;;;;;27.57;59.96;99273.09;5049575;28;20233;-79
2022/07/29 07:43:37;;;;;;;6.65;5.63;;;;;;;27.64;60.04;99272.53;5049074;28;20237;-79
2022/07/29 07:46:04;;;;;;;6.65;6.05;;;;;;;27.62;61.56;99283.88;5047801;28;20225;-79
2022/07/29 07:48:31;;;;;;;6.50;5.88;;;;;;;27.57;63.39;99281.34;5049227;28;20771;-79
2022/07/29 07:50:58;;;;;;;7.13;6.53;;;;;;;27.23;64.80;99287.97;5050612;28;20229;-81
2022/07/29 07:53:25;;;;;;;7.50;6.35;;;;;;;27.35;64.63;99284.44;5051592;28;20233;-79
2022/07/29 07:55:52;;;;;;;6.65;6.05;;;;;;;27.26;63.24;99289.22;5051944;28;20240;-80
2022/07/29 07:58:38;;;;;;;6.53;6.00;;;;;;;27.32;63.83;99282.38;5047344;28;20226;-79
2022/07/29 08:01:05;;;;;;;6.57;5.97;;;;;;;27.29;62.24;99292.13;5051636;28;20225;-78
2022/07/29 08:03:33;;;;;;;6.50;6.00;;;;;;;27.27;61.37;99280.66;5049923;28;20704;-79
2022/07/29 08:06:00;;;;;;;6.88;6.20;;;;;;;27.37;63.02;99284.91;5052789;28;20229;-78
2022/07/29 08:08:27;;;;;;;7.40;6.70;;;;;;;27.17;62.45;99286.56;5049323;28;20257;-79
2022/07/29 08:10:56;;;;;;;6.65;6.15;;;;;;;27.17;62.99;99290.13;5048087;28;20312;-79
2022/07/29 08:13:26;;;;;;;6.68;6.18;;;;;;;27.27;63.76;99293.59;5051194;28;20884;-79
2022/07/29 08:15:57;;;;;;;6.45;5.95;;;;;;;27.43;62.92;99287.13;5051648;28;20233;-81
2022/07/29 08:18:26;;;;;;;7.95;7.03;;;;;;;27.37;62.19;99282.16;5050563;28;20232;-80
2022/07/29 08:20:55;;;;;;;7.05;6.45;;;;;;;27.52;62.16;99289.81;5049931;28;20272;-79
2022/07/29 08:23:26;;;;;;;6.95;6.25;;;;;;;27.44;61.27;99287.91;5048381;28;20237;-79
2022/07/29 08:26:12;;;;;;;8.05;6.20;;;;;;;27.35;64.23;99292.69;5049793;28;20318;-79
2022/07/29 08:28:44;;;;;;;7.10;6.40;;;;;;;27.48;59.83;99283.34;5050599;28;20234;-79
2022/07/29 08:31:12;;;;;;;6.07;5.55;;;;;;;27.63;59.41;99284.66;5047254;28;20746;-78
2022/07/29 08:33:40;;;;;;;6.93;6.32;;;;;;;27.59;59.73;99290.84;5045197;28;20291;-79
2022/07/29 08:36:08;;;;;;;9.98;6.65;;;;;;;27.62;59.54;99285.84;5051440;28;20233;-80
2022/07/29 08:38:35;;;;;;;7.53;6.32;;;;;;;27.80;58.27;99295.50;5033199;28;20282;-80
2022/07/29 08:41:02;;;;;;;6.28;5.68;;;;;;;27.93;58.04;99289.66;5045917;28;20584;-79
2022/07/29 08:43:29;;;;;;;6.40;5.68;;;;;;;27.97;57.50;99287.84;5046529;28;20233;-78
2022/07/29 08:45:56;;;;;;;6.30;5.70;;;;;;;28.20;56.05;99285.47;5046295;28;20223;-79
2022/07/29 08:48:24;;;;;;;9.07;6.50;;;;;;;28.24;54.89;99291.06;5046156;28;20268;-79
2022/07/29 08:50:57;;;;;;;6.75;6.13;;;;;;;28.25;56.73;99282.47;5050484;28;20233;-78
2022/07/29 08:53:26;;;;;;;6.43;5.72;;;;;;;28.09;58.16;99284.28;5045303;28;20328;-80
2022/07/29 08:55:55;;;;;;;6.00;5.60;;;;;;;28.08;60.23;99279.13;5042075;28;20352;-79
2022/07/29 08:58:23;;;;;;;7.15;6.10;;;;;;;28.43;56.23;99286.59;5051587;28;20229;-79
2022/07/29 09:00:53;;;;;;;6.00;5.38;;;;;;;28.29;56.06;99279.84;5048609;28;20233;-80
2022/07/29 09:03:26;;;;;;;6.60;5.90;;;;;;;28.28;56.69;99287.28;5049102;28;20233;-79
2022/07/29 09:05:54;;;;;;;6.25;5.75;;;;;;;28.74;52.95;99277.72;5045007;28;20233;-80
2022/07/29 09:08:21;;;;;;;5.72;5.22;;;;;;;29.51;51.15;99283.91;5043906;28;20277;-79
2022/07/29 09:10:49;;;;;;;6.50;5.55;;;;;;;29.73;49.30;99272.25;5048174;28;20287;-79
2022/07/29 09:13:16;;;;;;;6.63;6.00;;;;;;;29.73;48.59;99266.75;5046774;28;20356;-80
2022/07/29 09:15:44;;;;;;;6.35;4.97;;;;;;;30.69;47.29;99268.31;5045714;28;20317;-79
2022/07/29 09:18:11;;;;;;;6.03;5.53;;;;;;;30.95;45.13;99257.41;5046244;28;20280;-79
2022/07/29 09:23:43;;;;;;;6.53;5.88;;;;;;;31.54;42.84;99268.09;5045395;28;20225;-81
2022/07/29 09:26:10;;;;;;;5.70;5.20;;;;;;;31.50;41.63;99269.19;5048835;28;20237;-81
2022/07/29 09:28:41;;;;;;;5.40;5.00;;;;;;;32.30;40.47;99258.72;5048123;28;20233;-81
2022/07/29 09:31:10;;;;;;;4.95;4.55;;;;;;;32.32;39.73;99261.16;5047965;28;20226;-81
2022/07/29 09:33:40;;;;;;;5.55;5.15;;;;;;;32.04;41.02;99260.66;5050558;28;20222;-83
2022/07/29 09:36:09;;;;;;;5.40;4.97;;;;;;;32.75;39.18;99257.84;5046626;28;20668;-80
2022/07/29 09:38:37;;;;;;;5.50;5.10;;;;;;;32.56;39.78;99257.13;5051503;28;20317;-81
2022/07/29 09:41:05;;;;;;;5.45;4.95;;;;;;;32.05;40.32;99256.72;5047753;28;20229;-81
2022/07/29 09:43:33;;;;;;;6.00;5.15;;;;;;;32.21;38.96;99251.84;5050317;28;20803;-81
2022/07/29 09:46:12;;;;;;;5.15;4.65;;;;;;;32.60;39.62;99258.78;5049158;28;20241;-81
2022/07/29 09:48:39;;;;;;;5.47;4.65;;;;;;;33.12;37.65;99252.34;5046970;28;20229;-80
2022/07/29 09:51:19;;;;;;;5.43;4.93;;;;;;;33.47;37.70;99251.97;5047593;28;20245;-79
2022/07/29 09:53:57;;;;;;;4.70;4.32;;;;;;;32.51;37.99;99240.81;5045805;28;20317;-80
2022/07/29 09:56:39;;;;;;;4.93;4.50;;;;;;;32.59;38.41;99237.78;5051194;28;20240;-82
2022/07/29 09:59:07;;;;;;;4.90;4.50;;;;;;;32.39;38.65;99236.28;5048313;28;20271;-80
2022/07/29 10:01:35;;;;;;;5.70;4.65;;;;;;;32.30;39.14;99230.22;5048511;28;20326;-81
2022/07/29 10:04:02;;;;;;;5.03;4.63;;;;;;;32.45;38.99;99236.78;5046424;28;20649;-80
2022/07/29 10:06:29;;;;;;;6.65;4.70;;;;;;;32.37;39.38;99230.34;5031263;28;20601;-78
2022/07/29 10:09:08;;;;;;;4.95;4.47;;;;;;;32.17;39.19;99231.59;5045895;28;20765;-81
2022/07/29 10:11:36;;;;;;;5.55;4.70;;;;;;;31.99;39.73;99222.19;5045817;28;20253;-81
2022/07/29 10:14:16;;;;;;;5.63;4.68;;;;;;;32.07;40.79;99232.19;5044929;28;20225;-81
2022/07/29 10:16:43;;;;;;;4.72;4.32;;;;;;;32.13;40.22;99220.47;5049298;28;20221;-81
2022/07/29 10:19:10;;;;;;;4.70;4.30;;;;;;;32.09;40.13;99216.03;5048491;28;20787;-81
2022/07/29 10:21:39;;;;;;;5.07;4.30;;;;;;;32.89;38.81;99215.59;5046508;28;20280;-81
2022/07/29 10:24:06;;;;;;;5.00;4.50;;;;;;;33.10;37.47;99218.63;5045049;28;20226;-81
2022/07/29 10:26:40;;;;;;;6.75;4.28;;;;;;;33.28;37.40;99218.03;5046377;28;20224;-81
2022/07/29 10:29:07;;;;;;;5.30;4.78;;;;;;;33.16;37.51;99219.13;5042428;28;20320;-81
2022/07/29 10:32:09;;;;;;;4.80;4.40;;;;;;;33.47;36.74;99212.28;5050870;28;20233;-81
2022/07/29 10:35:01;;;;;;;5.15;4.32;;;;;;;33.91;36.18;99218.66;5049395;28;20233;-80
2022/07/29 10:37:38;;;;;;;4.78;4.38;;;;;;;33.84;35.96;99217.78;5048713;28;21097;-81
2022/07/29 10:43:28;;;;;;;4.97;4.45;;;;;;;33.53;35.92;99205.22;5041669;28;20256;-81
2022/07/29 10:45:59;;;;;;;6.15;4.75;;;;;;;33.18;36.01;99202.88;5048512;28;20332;-80
2022/07/29 10:48:26;;;;;;;4.95;4.55;;;;;;;33.30;36.60;99205.38;5043210;28;20214;-80
2022/07/29 10:50:58;;;;;;;4.82;4.40;;;;;;;33.52;36.91;99203.59;5048767;28;20233;-79
2022/07/29 10:53:46;;;;;;;5.07;4.40;;;;;;;33.77;36.30;99204.66;5045236;28;20233;-79
2022/07/29 10:56:27;;;;;;;4.90;4.30;;;;;;;34.17;35.64;99191.84;5047876;28;20222;-79
2022/07/29 10:59:25;;;;;;;6.43;4.30;;;;;;;34.01;35.22;99195.72;5042527;28;20237;-78
2022/07/29 11:01:59;;;;;;;4.97;4.50;;;;;;;33.99;35.48;99194.50;5045763;28;20286;-79
2022/07/29 11:04:45;;;;;;;4.30;4.00;;;;;;;34.13;34.99;99185.47;5047875;28;20225;-79
2022/07/29 11:07:16;;;;;;;5.13;4.70;;;;;;;34.38;35.00;99183.66;5043959;28;20231;-79
2022/07/29 11:09:45;;;;;;;6.07;4.80;;;;;;;34.04;34.27;99183.03;5042288;28;20221;-79
2022/07/29 11:12:36;;;;;;;7.80;4.60;;;;;;;34.71;34.50;99171.53;5045621;28;20237;-78
2022/07/29 11:15:07;;;;;;;5.78;4.47;;;;;;;34.93;34.67;99181.53;5044949;28;20236;-78
2022/07/29 11:17:52;;;;;;;4.65;4.20;;;;;;;34.65;34.16;99173.88;5049427;28;20236;-78
2022/07/29 11:20:41;;;;;;;5.05;4.60;;;;;;;34.83;34.14;99182.31;5024290;28;20237;-78
2022/07/29 11:23:20;;;;;;;5.13;4.57;;;;;;;34.16;35.31;99176.34;5052057;28;20712;-78
2022/07/29 11:26:12;;;;;;;5.07;4.57;;;;;;;34.58;34.55;99171.03;5042337;28;20230;-78
2022/07/29 11:28:48;;;;;;;5.20;4.70;;;;;;;35.11;34.85;99162.91;5046425;28;20263;-79
2022/07/29 11:31:17;;;;;;;4.85;4.45;;;;;;;35.52;33.83;99166.16;5027472;28;20237;-79
2022/07/29 11:33:44;;;;;;;5.47;4.97;;;;;;;35.41;32.62;99156.22;5027284;28;20230;-78
2022/07/29 11:36:22;;;;;;;5.80;4.93;;;;;;;34.24;33.83;99153.81;5044562;28;20232;-79
2022/07/29 11:39:28;;;;;;;4.82;4.47;;;;;;;33.83;35.94;99157.88;5052930;28;20237;-79
2022/07/29 11:42:21;;;;;;;6.60;4.70;;;;;;;34.79;34.74;99160.03;5051548;28;20271;-78
2022/07/29 11:45:00;;;;;;;5.30;4.75;;;;;;;33.99;35.65;99147.25;5048883;28;20599;-79
2022/07/29 11:47:49;;;;;;;5.88;4.68;;;;;;;34.51;35.33;99142.41;5047422;28;20230;-79
2022/07/29 11:50:27;;;;;;;5.57;5.05;;;;;;;34.15;34.55;99142.22;5048745;28;20228;-79
2022/07/29 11:52:54;;;;;;;5.13;4.68;;;;;;;33.58;36.38;99144.56;5051912;28;20324;-78
2022/07/29 11:55:22;;;;;;;5.07;4.60;;;;;;;33.54;35.99;99140.97;5050269;28;20603;-78